createdAt,value
2023-04-23T00:00:18.987Z,405.00
2023-04-23T00:01:19.042Z,406.00
2023-04-23T00:02:19.168Z,407.00
2023-04-23T00:03:19.257Z,407.00
2023-04-23T00:04:19.239Z,409.00
2023-04-23T00:05:19.198Z,408.00
2023-04-23T00:06:19.169Z,408.00
2023-04-23T00:07:19.178Z,408.00
2023-04-23T00:08:19.180Z,408.00
2023-04-23T00:09:19.192Z,406.00
2023-04-23T00:10:19.879Z,407.00
2023-04-23T00:11:19.182Z,408.00
2023-04-23T00:12:19.185Z,407.00
2023-04-23T00:13:19.208Z,406.00
2023-04-23T00:14:19.192Z,407.00
2023-04-23T00:15:19.389Z,408.00
2023-04-23T00:16:19.208Z,411.00
2023-04-23T00:17:19.210Z,411.00
2023-04-23T00:18:19.203Z,410.00
2023-04-23T00:19:19.266Z,410.00
2023-04-23T00:20:19.212Z,408.00
2023-04-23T00:21:19.891Z,410.00
2023-04-23T00:22:19.231Z,413.00
2023-04-23T00:23:19.225Z,414.00
2023-04-23T00:24:19.235Z,415.00
2023-04-23T00:25:19.240Z,411.00
2023-04-23T00:26:19.255Z,409.00
2023-04-23T00:27:19.261Z,408.00
2023-04-23T00:28:22.009Z,407.00
2023-04-23T00:29:19.294Z,407.00
2023-04-23T00:30:19.263Z,409.00
2023-04-23T00:31:19.259Z,409.00
2023-04-23T00:32:19.270Z,407.00
2023-04-23T00:33:19.242Z,406.00
2023-04-23T00:34:19.233Z,406.00
2023-04-23T00:35:19.229Z,408.00
2023-04-23T00:36:19.224Z,409.00
2023-04-23T00:37:19.212Z,407.00
2023-04-23T00:38:19.192Z,406.00
2023-04-23T00:39:19.192Z,404.00
2023-04-23T00:40:19.180Z,404.00
2023-04-23T00:41:19.185Z,404.00
2023-04-23T00:42:19.165Z,403.00
2023-04-23T00:43:19.188Z,405.00
2023-04-23T00:44:19.180Z,403.00
2023-04-23T00:45:19.191Z,403.00
2023-04-23T00:46:19.153Z,401.00
2023-04-23T00:47:19.170Z,399.00
2023-04-23T00:48:19.132Z,398.00
2023-04-23T00:49:19.129Z,398.00
2023-04-23T00:50:19.127Z,401.00
2023-04-23T00:51:19.107Z,399.00
2023-04-23T00:52:19.900Z,396.00
2023-04-23T00:53:19.122Z,395.00
2023-04-23T00:54:19.083Z,396.00
2023-04-23T00:55:19.077Z,397.00
2023-04-23T00:56:19.900Z,400.00
2023-04-23T00:57:19.058Z,402.00
2023-04-23T00:58:19.058Z,403.00
2023-04-23T00:59:19.046Z,404.00
2023-04-23T01:00:19.058Z,407.00
2023-04-23T01:01:19.085Z,409.00
2023-04-23T01:02:19.141Z,409.00
2023-04-23T01:03:19.133Z,410.00
2023-04-23T01:04:19.127Z,412.00
2023-04-23T01:05:19.016Z,411.00
2023-04-23T01:06:18.993Z,410.00
2023-04-23T01:07:18.994Z,408.00
2023-04-23T01:08:19.906Z,409.00
2023-04-23T01:09:18.974Z,409.00
2023-04-23T01:10:18.974Z,409.00
2023-04-23T01:11:18.953Z,409.00
2023-04-23T01:12:18.969Z,408.00
2023-04-23T01:13:18.936Z,407.00
2023-04-23T01:14:18.938Z,407.00
2023-04-23T01:15:18.948Z,405.00
2023-04-23T01:16:18.930Z,406.00
2023-04-23T01:17:18.930Z,405.00
2023-04-23T01:18:18.899Z,404.00
2023-04-23T01:19:18.892Z,407.00
2023-04-23T01:20:18.889Z,408.00
2023-04-23T01:21:18.875Z,408.00
2023-04-23T01:22:18.873Z,409.00
2023-04-23T01:23:18.864Z,411.00
2023-04-23T01:24:18.870Z,412.00
2023-04-23T01:25:18.864Z,410.00
2023-04-23T01:26:18.883Z,410.00
2023-04-23T01:27:18.882Z,414.00
2023-04-23T01:28:18.900Z,414.00
2023-04-23T01:29:18.929Z,411.00
2023-04-23T01:30:18.930Z,410.00
2023-04-23T01:31:18.975Z,410.00
2023-04-23T01:32:18.995Z,411.00
2023-04-23T01:33:18.986Z,411.00
2023-04-23T01:34:18.976Z,410.00
2023-04-23T01:35:18.988Z,410.00
2023-04-23T01:36:18.995Z,406.00
2023-04-23T01:37:19.016Z,406.00
2023-04-23T01:38:19.024Z,409.00
2023-04-23T01:39:19.043Z,409.00
2023-04-23T01:40:19.048Z,408.00
2023-04-23T01:41:19.065Z,406.00
2023-04-23T01:42:19.080Z,411.00
2023-04-23T01:43:19.093Z,413.00
2023-04-23T01:44:19.113Z,410.00
2023-04-23T01:45:19.118Z,413.00
2023-04-23T01:46:19.148Z,411.00
2023-04-23T01:47:19.186Z,408.00
2023-04-23T01:48:19.155Z,411.00
2023-04-23T01:49:19.190Z,412.00
2023-04-23T01:50:19.175Z,414.00
2023-04-23T01:51:19.192Z,416.00
2023-04-23T01:52:19.197Z,414.00
2023-04-23T01:53:19.211Z,417.00
2023-04-23T01:54:19.230Z,412.00
2023-04-23T01:55:19.259Z,414.00
2023-04-23T01:56:19.263Z,414.00
2023-04-23T01:57:19.278Z,416.00
2023-04-23T01:58:19.277Z,416.00
2023-04-23T01:59:19.286Z,415.00
2023-04-23T02:00:19.288Z,418.00
2023-04-23T02:01:19.351Z,420.00
2023-04-23T02:02:19.339Z,421.00
2023-04-23T02:03:19.459Z,418.00
2023-04-23T02:04:19.434Z,420.00
2023-04-23T02:05:19.400Z,421.00
2023-04-23T02:06:19.375Z,419.00
2023-04-23T02:07:19.452Z,415.00
2023-04-23T02:08:19.405Z,414.00
2023-04-23T02:09:19.416Z,417.00
2023-04-23T02:10:19.435Z,418.00
2023-04-23T02:11:19.463Z,419.00
2023-04-23T02:12:19.452Z,417.00
2023-04-23T02:13:19.488Z,419.00
2023-04-23T02:14:20.431Z,417.00
2023-04-23T02:15:19.500Z,415.00
2023-04-23T02:16:18.532Z,415.00
2023-04-23T02:17:19.544Z,413.00
2023-04-23T02:18:19.531Z,413.00
2023-04-23T02:19:19.538Z,413.00
2023-04-23T02:20:19.573Z,413.00
2023-04-23T02:21:19.591Z,413.00
2023-04-23T02:22:19.577Z,412.00
2023-04-23T02:23:19.579Z,415.00
2023-04-23T02:24:19.590Z,414.00
2023-04-23T02:25:19.604Z,412.00
2023-04-23T02:26:20.436Z,409.00
2023-04-23T02:27:19.624Z,410.00
2023-04-23T02:28:19.652Z,410.00
2023-04-23T02:29:19.653Z,407.00
2023-04-23T02:30:19.673Z,408.00
2023-04-23T02:31:19.703Z,408.00
2023-04-23T02:32:19.720Z,407.00
2023-04-23T02:33:19.733Z,407.00
2023-04-23T02:34:19.727Z,409.00
2023-04-23T02:35:19.745Z,410.00
2023-04-23T02:36:19.762Z,409.00
2023-04-23T02:37:19.786Z,408.00
2023-04-23T02:38:19.780Z,407.00
2023-04-23T02:39:19.786Z,408.00
2023-04-23T02:40:19.805Z,407.00
2023-04-23T02:41:19.828Z,407.00
2023-04-23T02:42:19.841Z,408.00
2023-04-23T02:43:19.854Z,409.00
2023-04-23T02:44:19.863Z,408.00
2023-04-23T02:45:19.872Z,409.00
2023-04-23T02:46:19.890Z,408.00
2023-04-23T02:47:19.919Z,407.00
2023-04-23T02:48:19.916Z,406.00
2023-04-23T02:49:19.923Z,407.00
2023-04-23T02:50:19.940Z,406.00
2023-04-23T02:51:19.954Z,406.00
2023-04-23T02:52:19.975Z,409.00
2023-04-23T02:53:20.006Z,408.00
2023-04-23T02:54:19.991Z,411.00
2023-04-23T02:55:19.999Z,414.00
2023-04-23T02:56:20.033Z,417.00
2023-04-23T02:57:20.024Z,415.00
2023-04-23T02:58:20.044Z,414.00
2023-04-23T02:59:20.059Z,413.00
2023-04-23T03:00:20.070Z,415.00
2023-04-23T03:01:20.100Z,416.00
2023-04-23T03:02:20.232Z,416.00
2023-04-23T03:03:20.267Z,413.00
2023-04-23T03:04:20.143Z,415.00
2023-04-23T03:05:20.140Z,415.00
2023-04-23T03:06:20.157Z,415.00
2023-04-23T03:07:20.161Z,414.00
2023-04-23T03:08:20.177Z,415.00
2023-04-23T03:09:20.211Z,415.00
2023-04-23T03:10:20.206Z,415.00
2023-04-23T03:11:20.221Z,415.00
2023-04-23T03:12:20.233Z,414.00
2023-04-23T03:13:20.273Z,414.00
2023-04-23T03:14:20.258Z,414.00
2023-04-23T03:15:20.275Z,409.00
2023-04-23T03:16:20.305Z,409.00
2023-04-23T03:17:20.305Z,409.00
2023-04-23T03:18:20.464Z,410.00
2023-04-23T03:19:20.334Z,413.00
2023-04-23T03:20:20.947Z,410.00
2023-04-23T03:21:20.373Z,408.00
2023-04-23T03:22:20.398Z,407.00
2023-04-23T03:23:20.413Z,407.00
2023-04-23T03:24:20.422Z,407.00
2023-04-23T03:25:20.465Z,409.00
2023-04-23T03:26:20.459Z,407.00
2023-04-23T03:27:20.470Z,407.00
2023-04-23T03:28:20.494Z,407.00
2023-04-23T03:29:20.497Z,407.00
2023-04-23T03:30:21.452Z,407.00
2023-04-23T03:31:20.583Z,405.00
2023-04-23T03:32:20.592Z,408.00
2023-04-23T03:33:20.569Z,408.00
2023-04-23T03:34:20.581Z,407.00
2023-04-23T03:35:20.599Z,409.00
2023-04-23T03:36:20.614Z,410.00
2023-04-23T03:37:20.623Z,410.00
2023-04-23T03:38:20.656Z,411.00
2023-04-23T03:39:20.661Z,412.00
2023-04-23T03:40:20.685Z,415.00
2023-04-23T03:41:20.721Z,414.00
2023-04-23T03:42:20.713Z,413.00
2023-04-23T03:43:20.768Z,414.00
2023-04-23T03:44:20.753Z,412.00
2023-04-23T03:45:20.761Z,410.00
2023-04-23T03:46:20.851Z,412.00
2023-04-23T03:47:20.829Z,412.00
2023-04-23T03:48:20.860Z,413.00
2023-04-23T03:49:20.849Z,411.00
2023-04-23T03:50:20.864Z,411.00
2023-04-23T03:51:20.872Z,408.00
2023-04-23T03:52:20.890Z,409.00
2023-04-23T03:53:20.904Z,411.00
2023-04-23T03:54:20.945Z,411.00
2023-04-23T03:55:20.950Z,411.00
2023-04-23T03:56:20.971Z,413.00
2023-04-23T03:57:21.027Z,412.00
2023-04-23T03:58:21.022Z,413.00
2023-04-23T03:59:21.031Z,416.00
2023-04-23T04:00:21.029Z,413.00
2023-04-23T04:01:21.059Z,415.00
2023-04-23T04:02:21.222Z,415.00
2023-04-23T04:03:21.359Z,415.00
2023-04-23T04:04:21.530Z,414.00
2023-04-23T04:05:21.139Z,412.00
2023-04-23T04:06:21.155Z,410.00
2023-04-23T04:07:21.156Z,407.00
2023-04-23T04:08:21.179Z,408.00
2023-04-23T04:09:21.199Z,408.00
2023-04-23T04:10:21.220Z,411.00
2023-04-23T04:11:21.242Z,412.00
2023-04-23T04:12:21.265Z,417.00
2023-04-23T04:13:21.312Z,420.00
2023-04-23T04:14:21.324Z,421.00
2023-04-23T04:15:21.322Z,422.00
2023-04-23T04:16:21.420Z,417.00
2023-04-23T04:17:21.381Z,413.00
2023-04-23T04:18:21.390Z,414.00
2023-04-23T04:19:21.423Z,411.00
2023-04-23T04:20:21.443Z,409.00
2023-04-23T04:21:21.449Z,409.00
2023-04-23T04:22:21.473Z,409.00
2023-04-23T04:23:21.491Z,411.00
2023-04-23T04:24:23.112Z,409.00
2023-04-23T04:25:21.500Z,404.00
2023-04-23T04:26:21.494Z,406.00
2023-04-23T04:27:21.480Z,407.00
2023-04-23T04:28:21.470Z,405.00
2023-04-23T04:29:21.492Z,404.00
2023-04-23T04:30:21.459Z,404.00
2023-04-23T04:31:21.468Z,406.00
2023-04-23T04:32:21.458Z,407.00
2023-04-23T04:33:21.434Z,404.00
2023-04-23T04:34:21.434Z,404.00
2023-04-23T04:35:21.436Z,408.00
2023-04-23T04:36:21.400Z,407.00
2023-04-23T04:37:21.398Z,408.00
2023-04-23T04:38:21.387Z,409.00
2023-04-23T04:39:21.410Z,409.00
2023-04-23T04:40:21.366Z,408.00
2023-04-23T04:41:21.369Z,410.00
2023-04-23T04:42:21.401Z,410.00
2023-04-23T04:43:21.345Z,409.00
2023-04-23T04:44:21.334Z,410.00
2023-04-23T04:45:21.370Z,408.00
2023-04-23T04:46:21.365Z,408.00
2023-04-23T04:47:21.357Z,406.00
2023-04-23T04:48:21.310Z,408.00
2023-04-23T04:49:21.309Z,408.00
2023-04-23T04:50:21.307Z,408.00
2023-04-23T04:51:21.296Z,411.00
2023-04-23T04:52:21.272Z,409.00
2023-04-23T04:53:21.294Z,407.00
2023-04-23T04:54:21.267Z,408.00
2023-04-23T04:55:21.257Z,409.00
2023-04-23T04:56:21.250Z,405.00
2023-04-23T04:57:21.272Z,406.00
2023-04-23T04:58:21.249Z,405.00
2023-04-23T04:59:21.229Z,403.00
2023-04-23T05:00:21.239Z,403.00
2023-04-23T05:01:21.313Z,405.00
2023-04-23T05:02:21.386Z,404.00
2023-04-23T05:03:21.347Z,405.00
2023-04-23T05:04:21.302Z,407.00
2023-04-23T05:05:21.184Z,403.00
2023-04-23T05:06:22.000Z,402.00
2023-04-23T05:07:21.173Z,401.00
2023-04-23T05:08:21.167Z,403.00
2023-04-23T05:09:21.157Z,405.00
2023-04-23T05:10:21.155Z,407.00
2023-04-23T05:11:21.168Z,409.00
2023-04-23T05:12:21.150Z,411.00
2023-04-23T05:13:21.142Z,412.00
2023-04-23T05:14:22.035Z,412.00
2023-04-23T05:15:21.994Z,410.00
2023-04-23T05:16:21.188Z,408.00
2023-04-23T05:17:21.211Z,406.00
2023-04-23T05:18:21.207Z,407.00
2023-04-23T05:19:21.218Z,405.00
2023-04-23T05:20:21.243Z,404.00
2023-04-23T05:21:21.992Z,405.00
2023-04-23T05:22:21.995Z,407.00
2023-04-23T05:23:21.317Z,407.00
2023-04-23T05:24:21.338Z,405.00
2023-04-23T05:25:21.365Z,406.00
2023-04-23T05:26:21.389Z,406.00
2023-04-23T05:27:21.406Z,406.00
2023-04-23T05:28:21.417Z,406.00
2023-04-23T05:29:21.439Z,407.00
2023-04-23T05:30:21.472Z,410.00
2023-04-23T05:31:21.645Z,412.00
2023-04-23T05:32:22.732Z,414.00
2023-04-23T05:33:21.561Z,413.00
2023-04-23T05:34:21.565Z,411.00
2023-04-23T05:35:21.562Z,409.00
2023-04-23T05:36:21.593Z,406.00
2023-04-23T05:37:21.616Z,406.00
2023-04-23T05:38:21.648Z,408.00
2023-04-23T05:39:21.669Z,407.00
2023-04-23T05:40:22.600Z,406.00
2023-04-23T05:41:21.702Z,405.00
2023-04-23T05:42:21.741Z,403.00
2023-04-23T05:43:21.749Z,402.00
2023-04-23T05:44:21.782Z,403.00
2023-04-23T05:45:21.799Z,402.00
2023-04-23T05:46:22.752Z,403.00
2023-04-23T05:47:21.884Z,402.00
2023-04-23T05:48:21.876Z,402.00
2023-04-23T05:49:22.602Z,404.00
2023-04-23T05:50:22.603Z,404.00
2023-04-23T05:51:21.922Z,405.00
2023-04-23T05:52:21.941Z,411.00
2023-04-23T05:53:22.013Z,409.00
2023-04-23T05:54:22.003Z,412.00
2023-04-23T05:55:22.032Z,407.00
2023-04-23T05:56:22.077Z,404.00
2023-04-23T05:57:22.102Z,405.00
2023-04-23T05:58:22.176Z,407.00
2023-04-23T05:59:22.139Z,406.00
2023-04-23T06:00:22.211Z,408.00
2023-04-23T06:01:22.175Z,407.00
2023-04-23T06:02:24.718Z,404.00
2023-04-23T06:03:22.314Z,405.00
2023-04-23T06:04:23.201Z,403.00
2023-04-23T06:05:22.300Z,403.00
2023-04-23T06:06:22.158Z,404.00
2023-04-23T06:07:22.168Z,406.00
2023-04-23T06:08:24.535Z,407.00
2023-04-23T06:09:22.130Z,409.00
2023-04-23T06:10:22.146Z,406.00
2023-04-23T06:11:22.124Z,406.00
2023-04-23T06:12:22.994Z,405.00
2023-04-23T06:13:22.105Z,404.00
2023-04-23T06:14:22.092Z,404.00
2023-04-23T06:15:22.087Z,403.00
2023-04-23T06:16:22.184Z,405.00
2023-04-23T06:17:22.639Z,403.00
2023-04-23T06:18:23.004Z,405.00
2023-04-23T06:19:22.065Z,405.00
2023-04-23T06:20:22.077Z,404.00
2023-04-23T06:21:23.000Z,404.00
2023-04-23T06:22:22.061Z,404.00
2023-04-23T06:23:22.032Z,405.00
2023-04-23T06:24:22.026Z,402.00
2023-04-23T06:25:22.020Z,405.00
2023-04-23T06:26:22.010Z,405.00
2023-04-23T06:27:22.018Z,407.00
2023-04-23T06:28:21.996Z,409.00
2023-04-23T06:29:21.997Z,408.00
2023-04-23T06:30:21.978Z,409.00
2023-04-23T06:31:22.034Z,408.00
2023-04-23T06:32:21.972Z,407.00
2023-04-23T06:33:21.956Z,409.00
2023-04-23T06:34:21.967Z,410.00
2023-04-23T06:35:21.998Z,410.00
2023-04-23T06:36:23.033Z,412.00
2023-04-23T06:37:22.030Z,414.00
2023-04-23T06:38:22.051Z,415.00
2023-04-23T06:39:23.005Z,412.00
2023-04-23T06:40:22.103Z,409.00
2023-04-23T06:41:22.121Z,406.00
2023-04-23T06:42:22.129Z,413.00
2023-04-23T06:43:22.155Z,409.00
2023-04-23T06:44:22.180Z,407.00
2023-04-23T06:45:22.197Z,403.00
2023-04-23T06:46:22.223Z,402.00
2023-04-23T06:47:22.624Z,403.00
2023-04-23T06:48:22.643Z,403.00
2023-04-23T06:49:22.624Z,405.00
2023-04-23T06:50:22.653Z,405.00
2023-04-23T06:51:22.630Z,408.00
2023-04-23T06:52:22.662Z,407.00
2023-04-23T06:53:22.633Z,409.00
2023-04-23T06:54:22.632Z,410.00
2023-04-23T06:55:22.638Z,409.00
2023-04-23T06:56:22.635Z,409.00
2023-04-23T06:57:22.629Z,408.00
2023-04-23T06:58:22.646Z,409.00
2023-04-23T06:59:22.643Z,411.00
2023-04-23T07:00:22.642Z,411.00
2023-04-23T07:01:22.769Z,409.00
2023-04-23T07:02:22.695Z,409.00
2023-04-23T07:03:22.720Z,410.00
2023-04-23T07:04:22.797Z,411.00
2023-04-23T07:05:22.671Z,410.00
2023-04-23T07:06:22.666Z,413.00
2023-04-23T07:07:22.660Z,411.00
2023-04-23T07:08:22.693Z,412.00
2023-04-23T07:09:22.683Z,412.00
2023-04-23T07:10:22.703Z,411.00
2023-04-23T07:11:22.713Z,412.00
2023-04-23T07:12:22.722Z,414.00
2023-04-23T07:13:22.749Z,413.00
2023-04-23T07:14:22.766Z,413.00
2023-04-23T07:15:22.942Z,415.00
2023-04-23T07:16:22.851Z,414.00
2023-04-23T07:17:22.846Z,413.00
2023-04-23T07:18:22.840Z,413.00
2023-04-23T07:19:22.852Z,414.00
2023-04-23T07:20:23.662Z,418.00
2023-04-23T07:21:22.876Z,416.00
2023-04-23T07:22:22.888Z,415.00
2023-04-23T07:23:22.908Z,415.00
2023-04-23T07:24:22.939Z,416.00
2023-04-23T07:25:22.954Z,415.00
2023-04-23T07:26:22.942Z,416.00
2023-04-23T07:27:22.952Z,414.00
2023-04-23T07:28:23.058Z,413.00
2023-04-23T07:29:22.990Z,409.00
2023-04-23T07:30:23.009Z,410.00
2023-04-23T07:31:23.017Z,412.00
2023-04-23T07:32:23.060Z,413.00
2023-04-23T07:33:23.042Z,413.00
2023-04-23T07:34:23.051Z,413.00
2023-04-23T07:35:23.065Z,415.00
2023-04-23T07:36:23.081Z,418.00
2023-04-23T07:37:23.098Z,419.00
2023-04-23T07:38:23.111Z,419.00
2023-04-23T07:39:23.110Z,418.00
2023-04-23T07:40:23.140Z,415.00
2023-04-23T07:41:23.133Z,416.00
2023-04-23T07:42:23.149Z,416.00
2023-04-23T07:43:23.167Z,416.00
2023-04-23T07:44:23.178Z,413.00
2023-04-23T07:45:23.188Z,414.00
2023-04-23T07:46:24.087Z,413.00
2023-04-23T07:47:23.347Z,413.00
2023-04-23T07:48:23.226Z,412.00
2023-04-23T07:49:23.244Z,411.00
2023-04-23T07:50:23.253Z,413.00
2023-04-23T07:51:23.268Z,411.00
2023-04-23T07:52:23.277Z,411.00
2023-04-23T07:53:23.683Z,409.00
2023-04-23T07:54:25.590Z,411.00
2023-04-23T07:55:24.059Z,411.00
2023-04-23T07:56:23.645Z,412.00
2023-04-23T07:57:23.648Z,414.00
2023-04-23T07:58:23.285Z,412.00
2023-04-23T07:59:23.273Z,412.00
2023-04-23T08:00:23.276Z,412.00
2023-04-23T08:01:23.254Z,412.00
2023-04-23T08:02:23.336Z,411.00
2023-04-23T08:03:24.294Z,411.00
2023-04-23T08:04:23.666Z,412.00
2023-04-23T08:05:23.265Z,413.00
2023-04-23T08:06:23.216Z,410.00
2023-04-23T08:07:23.224Z,407.00
2023-04-23T08:08:23.221Z,408.00
2023-04-23T08:09:23.214Z,406.00
2023-04-23T08:10:23.243Z,404.00
2023-04-23T08:11:23.185Z,402.00
2023-04-23T08:12:23.207Z,405.00
2023-04-23T08:13:23.175Z,404.00
2023-04-23T08:14:23.175Z,406.00
2023-04-23T08:15:23.197Z,408.00
2023-04-23T08:16:23.317Z,407.00
2023-04-23T08:17:23.269Z,410.00
2023-04-23T08:18:24.068Z,411.00
2023-04-23T08:19:23.254Z,410.00
2023-04-23T08:20:23.287Z,411.00
2023-04-23T08:21:26.063Z,409.00
2023-04-23T08:22:23.282Z,410.00
2023-04-23T08:23:23.269Z,411.00
2023-04-23T08:24:23.266Z,411.00
2023-04-23T08:25:30.060Z,414.00
2023-04-23T08:26:23.248Z,413.00
2023-04-23T08:27:23.240Z,415.00
2023-04-23T08:28:23.262Z,417.00
2023-04-23T08:29:23.243Z,416.00
2023-04-23T08:30:23.296Z,418.00
2023-04-23T08:31:26.931Z,415.00
2023-04-23T08:33:41.010Z,406.00
2023-04-23T08:34:41.828Z,401.00
2023-04-23T08:35:41.819Z,403.00
2023-04-23T08:36:41.816Z,402.00
2023-04-23T08:37:41.805Z,403.00
2023-04-23T08:38:41.798Z,405.00
2023-04-23T08:39:42.076Z,404.00
2023-04-23T08:40:41.789Z,400.00
2023-04-23T08:41:41.772Z,401.00
2023-04-23T08:42:42.505Z,403.00
2023-04-23T08:43:41.784Z,404.00
2023-04-23T08:44:42.506Z,405.00
2023-04-23T08:45:42.513Z,404.00
2023-04-23T08:46:41.807Z,404.00
2023-04-23T08:47:41.779Z,402.00
2023-04-23T08:48:41.718Z,401.00
2023-04-23T08:49:42.003Z,405.00
2023-04-23T08:50:41.723Z,402.00
2023-04-23T08:51:41.727Z,403.00
2023-04-23T08:52:42.030Z,404.00
2023-04-23T08:53:42.015Z,402.00
2023-04-23T08:54:41.717Z,403.00
2023-04-23T08:55:41.716Z,401.00
2023-04-23T08:56:41.727Z,402.00
2023-04-23T08:57:41.719Z,402.00
2023-04-23T08:58:41.720Z,404.00
2023-04-23T08:59:42.066Z,402.00
2023-04-23T09:00:41.750Z,403.00
2023-04-23T09:01:41.754Z,403.00
2023-04-23T09:02:41.913Z,406.00
2023-04-23T09:03:41.815Z,409.00
2023-04-23T09:04:41.728Z,408.00
2023-04-23T09:05:41.737Z,409.00
2023-04-23T09:06:41.728Z,409.00
2023-04-23T09:07:41.737Z,409.00
2023-04-23T09:08:41.726Z,409.00
2023-04-23T09:09:41.884Z,407.00
2023-04-23T09:10:41.725Z,409.00
2023-04-23T09:11:41.729Z,407.00
2023-04-23T09:12:41.737Z,409.00
2023-04-23T09:13:42.051Z,410.00
2023-04-23T09:14:42.771Z,411.00
2023-04-23T09:15:42.551Z,411.00
2023-04-23T09:16:41.743Z,412.00
2023-04-23T09:17:41.757Z,410.00
2023-04-23T09:18:41.737Z,411.00
2023-04-23T09:19:42.024Z,413.00
2023-04-23T09:20:41.740Z,415.00
2023-04-23T09:21:42.524Z,415.00
2023-04-23T09:22:42.328Z,413.00
2023-04-23T09:23:41.728Z,415.00
2023-04-23T09:24:41.922Z,413.00
2023-04-23T09:25:41.749Z,412.00
2023-04-23T09:26:41.733Z,411.00
2023-04-23T09:27:41.749Z,411.00
2023-04-23T09:28:41.745Z,410.00
2023-04-23T09:29:42.140Z,410.00
2023-04-23T09:30:42.026Z,410.00
2023-04-23T09:31:41.796Z,411.00
2023-04-23T09:32:41.774Z,410.00
2023-04-23T09:33:41.748Z,411.00
2023-04-23T09:34:41.744Z,407.00
2023-04-23T09:35:41.741Z,406.00
2023-04-23T09:36:41.742Z,404.00
2023-04-23T09:37:41.745Z,401.00
2023-04-23T09:38:41.747Z,402.00
2023-04-23T09:39:42.120Z,406.00
2023-04-23T09:40:41.766Z,404.00
2023-04-23T09:41:41.746Z,402.00
2023-04-23T09:42:41.753Z,402.00
2023-04-23T09:43:41.763Z,402.00
2023-04-23T09:44:41.747Z,403.00
2023-04-23T09:45:41.759Z,403.00
2023-04-23T09:46:41.747Z,401.00
2023-04-23T09:47:41.795Z,402.00
2023-04-23T09:48:41.752Z,401.00
2023-04-23T09:49:42.094Z,400.00
2023-04-23T09:50:41.710Z,399.00
2023-04-23T09:51:42.042Z,399.00
2023-04-23T09:52:41.335Z,402.00
2023-04-23T09:53:41.331Z,401.00
2023-04-23T09:54:41.319Z,399.00
2023-04-23T09:55:41.312Z,401.00
2023-04-23T09:56:41.305Z,402.00
2023-04-23T09:57:41.305Z,405.00
2023-04-23T09:58:41.287Z,406.00
2023-04-23T09:59:49.774Z,407.00
2023-04-23T10:00:41.264Z,409.00
2023-04-23T10:01:41.304Z,408.00
2023-04-23T10:02:41.387Z,407.00
2023-04-23T10:03:42.238Z,406.00
2023-04-23T10:04:41.305Z,407.00
2023-04-23T10:05:59.637Z,408.00
2023-04-23T10:06:46.833Z,407.00
2023-04-23T10:07:41.223Z,407.00
2023-04-23T10:08:41.212Z,409.00
2023-04-23T10:09:41.544Z,408.00
2023-04-23T10:10:55.084Z,406.00
2023-04-23T10:11:41.220Z,407.00
2023-04-23T10:13:40.178Z,408.00
2023-04-23T10:14:41.172Z,406.00
2023-04-23T10:15:41.189Z,407.00
2023-04-23T10:17:40.179Z,410.00
2023-04-23T10:18:41.145Z,413.00
2023-04-23T10:19:41.524Z,414.00
2023-04-23T10:20:41.133Z,414.00
2023-04-23T10:21:53.462Z,413.00
2023-04-23T10:22:41.117Z,412.00
2023-04-23T10:23:41.106Z,414.00
2023-04-23T10:24:41.097Z,416.00
2023-04-23T10:25:41.096Z,415.00
2023-04-23T10:26:41.097Z,412.00
2023-04-23T10:27:52.196Z,409.00
2023-04-23T10:28:41.079Z,409.00
2023-04-23T10:29:42.458Z,407.00
2023-04-23T10:30:41.187Z,406.00
2023-04-23T10:31:41.314Z,407.00
2023-04-23T10:32:41.354Z,407.00
2023-04-23T10:33:55.393Z,407.00
2023-04-23T10:34:41.289Z,406.00
2023-04-23T10:35:41.363Z,408.00
2023-04-23T10:36:41.280Z,408.00
2023-04-23T10:37:41.291Z,407.00
2023-04-23T10:38:54.960Z,407.00
2023-04-23T10:39:41.271Z,407.00
2023-04-23T10:40:41.254Z,412.00
2023-04-23T10:41:41.252Z,407.00
2023-04-23T10:42:41.246Z,406.00
2023-04-23T10:43:41.231Z,405.00
2023-04-23T10:45:40.219Z,403.00
2023-04-23T10:46:42.069Z,406.00
2023-04-23T10:47:41.247Z,405.00
2023-04-23T10:48:41.205Z,406.00
2023-04-23T10:49:41.481Z,408.00
2023-04-23T10:51:00.165Z,408.00
2023-04-23T10:52:41.060Z,410.00
2023-04-23T10:53:41.164Z,411.00
2023-04-23T10:54:41.154Z,411.00
2023-04-23T10:55:41.153Z,410.00
2023-04-23T10:56:41.134Z,406.00
2023-04-23T10:57:41.130Z,409.00
2023-04-23T10:58:41.130Z,407.00
2023-04-23T10:59:41.289Z,408.00
2023-04-23T11:00:41.129Z,408.00
2023-04-23T11:01:41.154Z,406.00
2023-04-23T11:02:41.202Z,406.00
2023-04-23T11:03:44.603Z,404.00
2023-04-23T11:04:41.199Z,406.00
2023-04-23T11:05:41.076Z,406.00
2023-04-23T11:06:41.062Z,404.00
2023-04-23T11:07:41.083Z,401.00
2023-04-23T11:08:41.051Z,399.00
2023-04-23T11:09:41.353Z,400.00
2023-04-23T11:10:41.054Z,402.00
2023-04-23T11:11:41.026Z,400.00
2023-04-23T11:12:41.024Z,399.00
2023-04-23T11:13:41.023Z,400.00
2023-04-23T11:14:41.067Z,401.00
2023-04-23T11:15:41.074Z,401.00
2023-04-23T11:16:41.250Z,398.00
2023-04-23T11:17:41.127Z,398.00
2023-04-23T11:18:41.107Z,397.00
2023-04-23T11:19:41.403Z,395.00
2023-04-23T11:20:41.177Z,397.00
2023-04-23T11:21:41.198Z,400.00
2023-04-23T11:22:41.218Z,400.00
2023-04-23T11:23:41.267Z,403.00
2023-04-23T11:24:41.262Z,402.00
2023-04-23T11:25:41.267Z,403.00
2023-04-23T11:26:41.266Z,403.00
2023-04-23T11:27:41.293Z,404.00
2023-04-23T11:28:41.305Z,403.00
2023-04-23T11:29:41.565Z,403.00
2023-04-23T11:30:41.308Z,402.00
2023-04-23T11:31:50.624Z,399.00
2023-04-23T11:32:41.375Z,400.00
2023-04-23T11:33:41.291Z,400.00
2023-04-23T11:34:41.578Z,400.00
2023-04-23T11:35:41.289Z,401.00
2023-04-23T11:36:41.276Z,400.00
2023-04-23T11:37:41.265Z,400.00
2023-04-23T11:38:41.264Z,402.00
2023-04-23T11:39:41.629Z,401.00
2023-04-23T11:40:41.250Z,400.00
2023-04-23T11:41:41.237Z,399.00
2023-04-23T11:42:41.242Z,399.00
2023-04-23T11:43:41.237Z,401.00
2023-04-23T11:44:41.220Z,401.00
2023-04-23T11:45:41.250Z,400.00
2023-04-23T11:46:41.215Z,399.00
2023-04-23T11:47:41.249Z,398.00
2023-04-23T11:48:41.190Z,398.00
2023-04-23T11:49:41.362Z,399.00
2023-04-23T11:50:41.181Z,400.00
2023-04-23T11:51:41.169Z,399.00
2023-04-23T11:52:41.166Z,401.00
2023-04-23T11:53:41.154Z,400.00
2023-04-23T11:54:41.177Z,400.00
2023-04-23T11:55:41.248Z,402.00
2023-04-23T11:56:41.263Z,402.00
2023-04-23T11:57:41.308Z,402.00
2023-04-23T11:58:41.367Z,404.00
2023-04-23T11:59:41.724Z,405.00
2023-04-23T12:00:41.480Z,405.00
2023-04-23T12:01:42.079Z,405.00
2023-04-23T12:02:41.724Z,403.00
2023-04-23T12:03:41.708Z,403.00
2023-04-23T12:04:41.728Z,400.00
2023-04-23T12:05:42.652Z,398.00
2023-04-23T12:06:41.749Z,403.00
2023-04-23T12:07:41.806Z,403.00
2023-04-23T12:08:42.580Z,403.00
2023-04-23T12:09:42.180Z,402.00
2023-04-23T12:10:42.611Z,405.00
2023-04-23T12:11:41.997Z,407.00
2023-04-23T12:12:42.024Z,411.00
2023-04-23T12:13:42.081Z,409.00
2023-04-23T12:14:42.590Z,409.00
2023-04-23T12:15:42.215Z,407.00
2023-04-23T12:16:43.096Z,406.00
2023-04-23T12:17:42.355Z,407.00
2023-04-23T12:18:42.423Z,409.00
2023-04-23T12:19:42.831Z,408.00
2023-04-23T12:20:42.523Z,410.00
2023-04-23T12:21:42.561Z,410.00
2023-04-23T12:22:45.589Z,409.00
2023-04-23T12:23:42.620Z,411.00
2023-04-23T12:24:42.601Z,406.00
2023-04-23T12:25:42.587Z,403.00
2023-04-23T12:26:42.659Z,404.00
2023-04-23T12:27:43.122Z,404.00
2023-04-23T12:28:42.576Z,403.00
2023-04-23T12:29:42.845Z,404.00
2023-04-23T12:30:42.565Z,403.00
2023-04-23T12:31:42.634Z,404.00
2023-04-23T12:32:42.577Z,406.00
2023-04-23T12:33:42.547Z,406.00